sensor_id;sensor_type;location;lat;lon;timestamp;P1;durP1;ratioP1;P2;durP2;ratioP2
7493;SDS011;3788;49.902;8.590;2024-03-08T00:02:11;17.27;;;11.90;;
7493;SDS011;3788;49.902;8.590;2024-03-08T00:04:39;15.90;;;11.57;;
7493;SDS011;3788;49.902;8.590;2024-03-08T00:07:07;15.73;;;11.20;;
7493;SDS011;3788;49.902;8.590;2024-03-08T00:09:34;17.37;;;11.57;;
7493;SDS011;3788;49.902;8.590;2024-03-08T00:12:00;18.80;;;11.80;;
7493;SDS011;3788;49.902;8.590;2024-03-08T00:14:27;17.33;;;12.43;;
7493;SDS011;3788;49.902;8.590;2024-03-08T00:16:53;18.57;;;12.03;;
7493;SDS011;3788;49.902;8.590;2024-03-08T00:19:20;18.13;;;11.43;;
7493;SDS011;3788;49.902;8.590;2024-03-08T00:21:48;16.10;;;11.37;;
7493;SDS011;3788;49.902;8.590;2024-03-08T00:24:15;16.70;;;12.57;;
7493;SDS011;3788;49.902;8.590;2024-03-08T00:26:42;16.57;;;12.30;;
7493;SDS011;3788;49.902;8.590;2024-03-08T00:29:08;15.63;;;12.10;;
7493;SDS011;3788;49.902;8.590;2024-03-08T00:31:35;15.83;;;11.67;;
7493;SDS011;3788;49.902;8.590;2024-03-08T00:34:02;14.97;;;11.70;;
7493;SDS011;3788;49.902;8.590;2024-03-08T00:36:28;18.60;;;11.60;;
7493;SDS011;3788;49.902;8.590;2024-03-08T00:38:57;17.57;;;12.60;;
7493;SDS011;3788;49.902;8.590;2024-03-08T00:41:25;15.30;;;10.90;;
7493;SDS011;3788;49.902;8.590;2024-03-08T00:43:52;16.13;;;11.70;;
7493;SDS011;3788;49.902;8.590;2024-03-08T00:46:19;16.53;;;12.33;;
7493;SDS011;3788;49.902;8.590;2024-03-08T00:48:45;17.97;;;12.30;;
7493;SDS011;3788;49.902;8.590;2024-03-08T00:51:12;16.93;;;12.10;;
7493;SDS011;3788;49.902;8.590;2024-03-08T00:53:40;15.70;;;11.80;;
7493;SDS011;3788;49.902;8.590;2024-03-08T00:56:10;15.87;;;11.57;;
7493;SDS011;3788;49.902;8.590;2024-03-08T00:58:37;18.30;;;12.60;;
7493;SDS011;3788;49.902;8.590;2024-03-08T01:01:03;18.07;;;11.57;;
7493;SDS011;3788;49.902;8.590;2024-03-08T01:03:30;17.27;;;12.23;;
7493;SDS011;3788;49.902;8.590;2024-03-08T01:05:58;16.60;;;11.83;;
7493;SDS011;3788;49.902;8.590;2024-03-08T01:08:26;18.43;;;12.37;;
7493;SDS011;3788;49.902;8.590;2024-03-08T01:10:52;16.03;;;11.30;;
7493;SDS011;3788;49.902;8.590;2024-03-08T01:13:21;17.53;;;12.53;;
7493;SDS011;3788;49.902;8.590;2024-03-08T01:15:47;17.53;;;12.93;;
7493;SDS011;3788;49.902;8.590;2024-03-08T01:18:14;16.47;;;12.60;;
7493;SDS011;3788;49.902;8.590;2024-03-08T01:20:40;19.10;;;12.70;;
7493;SDS011;3788;49.902;8.590;2024-03-08T01:23:07;20.03;;;13.47;;
7493;SDS011;3788;49.902;8.590;2024-03-08T01:25:34;17.93;;;12.33;;
7493;SDS011;3788;49.902;8.590;2024-03-08T01:28:00;17.20;;;11.17;;
7493;SDS011;3788;49.902;8.590;2024-03-08T01:30:28;15.90;;;11.83;;
7493;SDS011;3788;49.902;8.590;2024-03-08T01:32:57;19.07;;;12.87;;
7493;SDS011;3788;49.902;8.590;2024-03-08T01:35:24;17.47;;;12.00;;
7493;SDS011;3788;49.902;8.590;2024-03-08T01:37:52;17.43;;;12.10;;
7493;SDS011;3788;49.902;8.590;2024-03-08T01:40:19;18.90;;;13.07;;
7493;SDS011;3788;49.902;8.590;2024-03-08T01:42:46;17.97;;;12.50;;
7493;SDS011;3788;49.902;8.590;2024-03-08T01:45:13;16.23;;;12.07;;
7493;SDS011;3788;49.902;8.590;2024-03-08T01:47:41;19.00;;;12.83;;
7493;SDS011;3788;49.902;8.590;2024-03-08T01:50:07;17.40;;;11.67;;
7493;SDS011;3788;49.902;8.590;2024-03-08T01:52:35;19.23;;;12.80;;
7493;SDS011;3788;49.902;8.590;2024-03-08T01:55:03;20.93;;;12.50;;
7493;SDS011;3788;49.902;8.590;2024-03-08T01:57:32;18.83;;;12.70;;
7493;SDS011;3788;49.902;8.590;2024-03-08T02:00:01;15.87;;;12.20;;
7493;SDS011;3788;49.902;8.590;2024-03-08T02:02:31;17.97;;;11.93;;
7493;SDS011;3788;49.902;8.590;2024-03-08T02:05:00;19.50;;;13.63;;
7493;SDS011;3788;49.902;8.590;2024-03-08T02:07:28;16.43;;;11.97;;
7493;SDS011;3788;49.902;8.590;2024-03-08T02:09:54;19.07;;;11.97;;
7493;SDS011;3788;49.902;8.590;2024-03-08T02:12:21;17.03;;;12.23;;
7493;SDS011;3788;49.902;8.590;2024-03-08T02:14:48;18.87;;;12.87;;
7493;SDS011;3788;49.902;8.590;2024-03-08T02:17:14;17.37;;;12.33;;
7493;SDS011;3788;49.902;8.590;2024-03-08T02:19:41;18.70;;;13.60;;
7493;SDS011;3788;49.902;8.590;2024-03-08T02:22:09;18.50;;;13.00;;
7493;SDS011;3788;49.902;8.590;2024-03-08T02:24:36;16.40;;;12.40;;
7493;SDS011;3788;49.902;8.590;2024-03-08T02:27:02;19.57;;;13.03;;
7493;SDS011;3788;49.902;8.590;2024-03-08T02:29:30;18.63;;;12.40;;
7493;SDS011;3788;49.902;8.590;2024-03-08T02:31:58;18.83;;;12.57;;
7493;SDS011;3788;49.902;8.590;2024-03-08T02:34:25;19.10;;;13.13;;
7493;SDS011;3788;49.902;8.590;2024-03-08T02:36:52;20.07;;;12.70;;
7493;SDS011;3788;49.902;8.590;2024-03-08T02:39:22;17.80;;;12.50;;
7493;SDS011;3788;49.902;8.590;2024-03-08T02:41:49;22.23;;;13.87;;
7493;SDS011;3788;49.902;8.590;2024-03-08T02:44:16;18.20;;;12.03;;
7493;SDS011;3788;49.902;8.590;2024-03-08T02:46:42;18.50;;;12.70;;
7493;SDS011;3788;49.902;8.590;2024-03-08T02:49:10;19.57;;;13.30;;
7493;SDS011;3788;49.902;8.590;2024-03-08T02:51:36;19.33;;;12.63;;
7493;SDS011;3788;49.902;8.590;2024-03-08T02:54:03;21.00;;;12.73;;
7493;SDS011;3788;49.902;8.590;2024-03-08T02:56:31;21.40;;;12.93;;
7493;SDS011;3788;49.902;8.590;2024-03-08T02:58:59;18.73;;;12.63;;
7493;SDS011;3788;49.902;8.590;2024-03-08T03:01:26;19.03;;;12.47;;
7493;SDS011;3788;49.902;8.590;2024-03-08T03:03:53;18.67;;;13.30;;
7493;SDS011;3788;49.902;8.590;2024-03-08T03:06:19;16.83;;;12.27;;
7493;SDS011;3788;49.902;8.590;2024-03-08T03:08:47;20.77;;;12.63;;
7493;SDS011;3788;49.902;8.590;2024-03-08T03:11:13;19.00;;;13.40;;
7493;SDS011;3788;49.902;8.590;2024-03-08T03:13:41;16.80;;;11.53;;
7493;SDS011;3788;49.902;8.590;2024-03-08T03:16:16;18.17;;;13.63;;
7493;SDS011;3788;49.902;8.590;2024-03-08T03:18:43;19.83;;;12.83;;
7493;SDS011;3788;49.902;8.590;2024-03-08T03:21:10;20.43;;;13.37;;
7493;SDS011;3788;49.902;8.590;2024-03-08T03:23:38;19.43;;;13.10;;
7493;SDS011;3788;49.902;8.590;2024-03-08T03:26:06;19.10;;;13.27;;
7493;SDS011;3788;49.902;8.590;2024-03-08T03:28:32;18.30;;;12.93;;
7493;SDS011;3788;49.902;8.590;2024-03-08T03:31:00;19.33;;;13.37;;
7493;SDS011;3788;49.902;8.590;2024-03-08T03:33:27;18.23;;;12.97;;
7493;SDS011;3788;49.902;8.590;2024-03-08T03:35:54;18.20;;;11.97;;
7493;SDS011;3788;49.902;8.590;2024-03-08T03:38:20;18.83;;;12.90;;
7493;SDS011;3788;49.902;8.590;2024-03-08T03:40:48;18.70;;;13.07;;
7493;SDS011;3788;49.902;8.590;2024-03-08T03:43:17;17.37;;;12.70;;
7493;SDS011;3788;49.902;8.590;2024-03-08T03:45:44;18.93;;;12.20;;
7493;SDS011;3788;49.902;8.590;2024-03-08T03:48:12;19.63;;;12.53;;
7493;SDS011;3788;49.902;8.590;2024-03-08T03:50:39;21.57;;;13.30;;
7493;SDS011;3788;49.902;8.590;2024-03-08T03:53:06;20.20;;;13.87;;
7493;SDS011;3788;49.902;8.590;2024-03-08T03:55:33;19.40;;;12.83;;
7493;SDS011;3788;49.902;8.590;2024-03-08T03:57:59;21.10;;;12.77;;
7493;SDS011;3788;49.902;8.590;2024-03-08T04:00:27;19.53;;;13.50;;
7493;SDS011;3788;49.902;8.590;2024-03-08T04:02:54;19.00;;;13.03;;
7493;SDS011;3788;49.902;8.590;2024-03-08T04:05:25;18.60;;;13.23;;
7493;SDS011;3788;49.902;8.590;2024-03-08T04:07:52;17.67;;;12.53;;
7493;SDS011;3788;49.902;8.590;2024-03-08T04:10:19;19.60;;;12.40;;
7493;SDS011;3788;49.902;8.590;2024-03-08T04:12:45;17.47;;;12.63;;
7493;SDS011;3788;49.902;8.590;2024-03-08T04:15:12;21.33;;;13.60;;
7493;SDS011;3788;49.902;8.590;2024-03-08T04:17:40;19.40;;;12.67;;
7493;SDS011;3788;49.902;8.590;2024-03-08T04:20:07;20.13;;;13.77;;
7493;SDS011;3788;49.902;8.590;2024-03-08T04:22:36;20.70;;;13.67;;
7493;SDS011;3788;49.902;8.590;2024-03-08T04:25:04;19.53;;;12.77;;
7493;SDS011;3788;49.902;8.590;2024-03-08T04:27:31;21.80;;;14.03;;
7493;SDS011;3788;49.902;8.590;2024-03-08T04:29:59;18.57;;;12.93;;
7493;SDS011;3788;49.902;8.590;2024-03-08T04:32:25;20.33;;;13.63;;
7493;SDS011;3788;49.902;8.590;2024-03-08T04:34:54;26.87;;;14.20;;
7493;SDS011;3788;49.902;8.590;2024-03-08T04:37:21;22.17;;;13.50;;
7493;SDS011;3788;49.902;8.590;2024-03-08T04:39:49;20.80;;;12.87;;
7493;SDS011;3788;49.902;8.590;2024-03-08T04:42:16;20.00;;;13.80;;
7493;SDS011;3788;49.902;8.590;2024-03-08T04:44:43;20.03;;;13.17;;
7493;SDS011;3788;49.902;8.590;2024-03-08T04:47:10;20.33;;;13.17;;
7493;SDS011;3788;49.902;8.590;2024-03-08T04:49:37;21.33;;;13.57;;
7493;SDS011;3788;49.902;8.590;2024-03-08T04:52:03;24.17;;;14.03;;
7493;SDS011;3788;49.902;8.590;2024-03-08T04:54:32;19.50;;;12.60;;
7493;SDS011;3788;49.902;8.590;2024-03-08T04:57:00;21.13;;;14.13;;
7493;SDS011;3788;49.902;8.590;2024-03-08T04:59:27;22.17;;;13.57;;
7493;SDS011;3788;49.902;8.590;2024-03-08T05:01:53;18.73;;;12.33;;
7493;SDS011;3788;49.902;8.590;2024-03-08T05:04:22;20.13;;;12.93;;
7493;SDS011;3788;49.902;8.590;2024-03-08T05:06:48;19.63;;;12.40;;
7493;SDS011;3788;49.902;8.590;2024-03-08T05:09:15;21.40;;;14.67;;
7493;SDS011;3788;49.902;8.590;2024-03-08T05:11:44;19.70;;;12.70;;
7493;SDS011;3788;49.902;8.590;2024-03-08T05:14:13;21.30;;;13.27;;
7493;SDS011;3788;49.902;8.590;2024-03-08T05:16:41;21.77;;;13.80;;
7493;SDS011;3788;49.902;8.590;2024-03-08T05:19:08;23.33;;;14.67;;
7493;SDS011;3788;49.902;8.590;2024-03-08T05:21:35;27.03;;;14.07;;
7493;SDS011;3788;49.902;8.590;2024-03-08T05:24:01;20.90;;;13.57;;
7493;SDS011;3788;49.902;8.590;2024-03-08T05:26:29;21.17;;;13.80;;
7493;SDS011;3788;49.902;8.590;2024-03-08T05:28:58;21.03;;;13.13;;
7493;SDS011;3788;49.902;8.590;2024-03-08T05:31:26;21.57;;;13.43;;
7493;SDS011;3788;49.902;8.590;2024-03-08T05:33:53;21.77;;;13.60;;
7493;SDS011;3788;49.902;8.590;2024-03-08T05:36:21;21.50;;;14.27;;
7493;SDS011;3788;49.902;8.590;2024-03-08T05:38:47;22.33;;;13.63;;
7493;SDS011;3788;49.902;8.590;2024-03-08T05:41:15;20.30;;;13.17;;
7493;SDS011;3788;49.902;8.590;2024-03-08T05:43:42;19.83;;;13.33;;
7493;SDS011;3788;49.902;8.590;2024-03-08T05:46:08;21.83;;;14.67;;
7493;SDS011;3788;49.902;8.590;2024-03-08T05:48:38;21.00;;;14.00;;
7493;SDS011;3788;49.902;8.590;2024-03-08T05:51:04;21.30;;;13.07;;
7493;SDS011;3788;49.902;8.590;2024-03-08T05:53:31;21.87;;;13.10;;
7493;SDS011;3788;49.902;8.590;2024-03-08T05:55:58;23.37;;;13.70;;
7493;SDS011;3788;49.902;8.590;2024-03-08T05:58:27;21.00;;;14.43;;
7493;SDS011;3788;49.902;8.590;2024-03-08T06:00:55;18.83;;;12.10;;
7493;SDS011;3788;49.902;8.590;2024-03-08T06:03:21;19.17;;;12.93;;
7493;SDS011;3788;49.902;8.590;2024-03-08T06:05:49;22.70;;;13.23;;
7493;SDS011;3788;49.902;8.590;2024-03-08T06:08:16;19.90;;;13.10;;
7493;SDS011;3788;49.902;8.590;2024-03-08T06:10:44;21.57;;;13.97;;
7493;SDS011;3788;49.902;8.590;2024-03-08T06:13:11;19.33;;;13.43;;
7493;SDS011;3788;49.902;8.590;2024-03-08T06:15:38;23.20;;;14.77;;
7493;SDS011;3788;49.902;8.590;2024-03-08T06:18:04;20.27;;;13.17;;
7493;SDS011;3788;49.902;8.590;2024-03-08T06:20:33;22.27;;;13.70;;
7493;SDS011;3788;49.902;8.590;2024-03-08T06:23:01;23.57;;;14.97;;
7493;SDS011;3788;49.902;8.590;2024-03-08T06:25:28;21.43;;;14.73;;
7493;SDS011;3788;49.902;8.590;2024-03-08T06:27:54;21.67;;;13.63;;
7493;SDS011;3788;49.902;8.590;2024-03-08T06:30:21;21.63;;;15.43;;
7493;SDS011;3788;49.902;8.590;2024-03-08T06:32:48;21.57;;;13.93;;
7493;SDS011;3788;49.902;8.590;2024-03-08T06:35:14;20.40;;;13.87;;
7493;SDS011;3788;49.902;8.590;2024-03-08T06:37:41;23.37;;;15.57;;
7493;SDS011;3788;49.902;8.590;2024-03-08T06:40:11;21.73;;;14.30;;
7493;SDS011;3788;49.902;8.590;2024-03-08T06:42:39;23.23;;;14.43;;
7493;SDS011;3788;49.902;8.590;2024-03-08T06:45:06;25.73;;;14.90;;
7493;SDS011;3788;49.902;8.590;2024-03-08T06:47:35;18.93;;;13.40;;
7493;SDS011;3788;49.902;8.590;2024-03-08T06:50:02;24.33;;;15.20;;
7493;SDS011;3788;49.902;8.590;2024-03-08T06:52:30;19.87;;;13.90;;
7493;SDS011;3788;49.902;8.590;2024-03-08T06:54:58;24.30;;;15.33;;
7493;SDS011;3788;49.902;8.590;2024-03-08T06:57:28;24.70;;;15.33;;
7493;SDS011;3788;49.902;8.590;2024-03-08T06:59:54;24.17;;;14.33;;
7493;SDS011;3788;49.902;8.590;2024-03-08T07:02:22;22.10;;;14.93;;
7493;SDS011;3788;49.902;8.590;2024-03-08T07:04:49;21.40;;;13.83;;
7493;SDS011;3788;49.902;8.590;2024-03-08T07:07:16;21.67;;;13.47;;
7493;SDS011;3788;49.902;8.590;2024-03-08T07:09:45;21.13;;;14.57;;
7493;SDS011;3788;49.902;8.590;2024-03-08T07:12:14;21.20;;;13.73;;
7493;SDS011;3788;49.902;8.590;2024-03-08T07:14:43;19.63;;;13.83;;
7493;SDS011;3788;49.902;8.590;2024-03-08T07:17:11;21.97;;;14.03;;
7493;SDS011;3788;49.902;8.590;2024-03-08T07:19:38;17.33;;;12.90;;
7493;SDS011;3788;49.902;8.590;2024-03-08T07:22:05;20.90;;;13.20;;
7493;SDS011;3788;49.902;8.590;2024-03-08T07:24:33;19.13;;;13.50;;
7493;SDS011;3788;49.902;8.590;2024-03-08T07:27:15;20.10;;;13.60;;
7493;SDS011;3788;49.902;8.590;2024-03-08T07:29:43;17.90;;;13.17;;
7493;SDS011;3788;49.902;8.590;2024-03-08T07:32:10;21.10;;;15.20;;
7493;SDS011;3788;49.902;8.590;2024-03-08T07:34:45;18.13;;;12.90;;
7493;SDS011;3788;49.902;8.590;2024-03-08T07:37:13;21.17;;;14.03;;
7493;SDS011;3788;49.902;8.590;2024-03-08T07:39:40;19.10;;;13.63;;
7493;SDS011;3788;49.902;8.590;2024-03-08T07:42:06;19.90;;;13.10;;
7493;SDS011;3788;49.902;8.590;2024-03-08T07:44:33;19.40;;;14.30;;
7493;SDS011;3788;49.902;8.590;2024-03-08T07:47:01;16.23;;;12.73;;
7493;SDS011;3788;49.902;8.590;2024-03-08T07:49:28;18.17;;;13.80;;
7493;SDS011;3788;49.902;8.590;2024-03-08T07:51:55;20.33;;;13.70;;
7493;SDS011;3788;49.902;8.590;2024-03-08T07:54:22;18.20;;;13.47;;
7493;SDS011;3788;49.902;8.590;2024-03-08T07:56:50;17.33;;;12.50;;
7493;SDS011;3788;49.902;8.590;2024-03-08T07:59:17;17.90;;;13.57;;
7493;SDS011;3788;49.902;8.590;2024-03-08T08:01:44;18.87;;;12.77;;
7493;SDS011;3788;49.902;8.590;2024-03-08T08:04:13;18.23;;;13.73;;
7493;SDS011;3788;49.902;8.590;2024-03-08T08:06:42;16.97;;;12.60;;
7493;SDS011;3788;49.902;8.590;2024-03-08T08:09:09;18.23;;;13.07;;
7493;SDS011;3788;49.902;8.590;2024-03-08T08:11:39;19.60;;;14.53;;
7493;SDS011;3788;49.902;8.590;2024-03-08T08:14:08;19.40;;;14.63;;
7493;SDS011;3788;49.902;8.590;2024-03-08T08:16:35;20.43;;;13.97;;
7493;SDS011;3788;49.902;8.590;2024-03-08T08:19:02;18.97;;;13.57;;
7493;SDS011;3788;49.902;8.590;2024-03-08T08:21:33;19.73;;;13.67;;
7493;SDS011;3788;49.902;8.590;2024-03-08T08:24:01;18.03;;;12.97;;
7493;SDS011;3788;49.902;8.590;2024-03-08T08:26:28;17.80;;;13.40;;
7493;SDS011;3788;49.902;8.590;2024-03-08T08:28:55;18.50;;;13.20;;
7493;SDS011;3788;49.902;8.590;2024-03-08T08:31:22;17.37;;;13.13;;
7493;SDS011;3788;49.902;8.590;2024-03-08T08:33:49;16.27;;;12.17;;
7493;SDS011;3788;49.902;8.590;2024-03-08T08:36:18;18.50;;;13.60;;
7493;SDS011;3788;49.902;8.590;2024-03-08T08:38:46;17.77;;;12.73;;
7493;SDS011;3788;49.902;8.590;2024-03-08T08:41:13;19.97;;;12.97;;
7493;SDS011;3788;49.902;8.590;2024-03-08T08:43:41;16.90;;;12.77;;
7493;SDS011;3788;49.902;8.590;2024-03-08T08:46:09;17.03;;;13.17;;
7493;SDS011;3788;49.902;8.590;2024-03-08T08:48:38;17.93;;;13.43;;
7493;SDS011;3788;49.902;8.590;2024-03-08T08:51:06;18.43;;;12.67;;
7493;SDS011;3788;49.902;8.590;2024-03-08T08:53:32;14.63;;;11.83;;
7493;SDS011;3788;49.902;8.590;2024-03-08T08:56:01;15.17;;;11.83;;
7493;SDS011;3788;49.902;8.590;2024-03-08T08:58:28;17.13;;;12.23;;
7493;SDS011;3788;49.902;8.590;2024-03-08T09:00:55;16.10;;;12.20;;
7493;SDS011;3788;49.902;8.590;2024-03-08T09:03:21;15.13;;;11.60;;
7493;SDS011;3788;49.902;8.590;2024-03-08T09:05:49;16.13;;;12.20;;
7493;SDS011;3788;49.902;8.590;2024-03-08T09:08:16;15.97;;;11.40;;
7493;SDS011;3788;49.902;8.590;2024-03-08T09:10:42;15.30;;;12.10;;
7493;SDS011;3788;49.902;8.590;2024-03-08T09:13:10;17.40;;;12.07;;
7493;SDS011;3788;49.902;8.590;2024-03-08T09:15:38;15.20;;;12.20;;
7493;SDS011;3788;49.902;8.590;2024-03-08T09:18:05;16.57;;;11.93;;
7493;SDS011;3788;49.902;8.590;2024-03-08T09:20:32;14.57;;;11.63;;
7493;SDS011;3788;49.902;8.590;2024-03-08T09:22:58;16.43;;;12.03;;
7493;SDS011;3788;49.902;8.590;2024-03-08T09:25:25;16.03;;;12.23;;
7493;SDS011;3788;49.902;8.590;2024-03-08T09:27:53;15.13;;;11.60;;
7493;SDS011;3788;49.902;8.590;2024-03-08T09:30:21;15.00;;;11.97;;
7493;SDS011;3788;49.902;8.590;2024-03-08T09:32:48;15.07;;;12.03;;
7493;SDS011;3788;49.902;8.590;2024-03-08T09:35:16;16.97;;;11.73;;
7493;SDS011;3788;49.902;8.590;2024-03-08T09:37:43;16.83;;;12.63;;
7493;SDS011;3788;49.902;8.590;2024-03-08T09:40:09;15.30;;;11.73;;
7493;SDS011;3788;49.902;8.590;2024-03-08T09:42:40;16.30;;;12.00;;
7493;SDS011;3788;49.902;8.590;2024-03-08T09:45:07;16.73;;;12.20;;
7493;SDS011;3788;49.902;8.590;2024-03-08T09:47:38;14.87;;;11.83;;
7493;SDS011;3788;49.902;8.590;2024-03-08T09:50:07;15.03;;;11.27;;
7493;SDS011;3788;49.902;8.590;2024-03-08T09:52:34;16.80;;;12.50;;
7493;SDS011;3788;49.902;8.590;2024-03-08T09:55:02;15.40;;;12.03;;
7493;SDS011;3788;49.902;8.590;2024-03-08T09:57:31;14.53;;;11.27;;
7493;SDS011;3788;49.902;8.590;2024-03-08T09:59:58;18.43;;;12.90;;
7493;SDS011;3788;49.902;8.590;2024-03-08T10:02:25;14.37;;;11.50;;
7493;SDS011;3788;49.902;8.590;2024-03-08T10:04:53;16.60;;;11.20;;
7493;SDS011;3788;49.902;8.590;2024-03-08T10:07:20;15.97;;;11.80;;
7493;SDS011;3788;49.902;8.590;2024-03-08T10:09:47;15.70;;;12.40;;
7493;SDS011;3788;49.902;8.590;2024-03-08T10:12:15;15.67;;;11.57;;
7493;SDS011;3788;49.902;8.590;2024-03-08T10:14:41;16.60;;;11.53;;
7493;SDS011;3788;49.902;8.590;2024-03-08T10:17:08;13.60;;;11.77;;
7493;SDS011;3788;49.902;8.590;2024-03-08T10:19:35;15.67;;;11.37;;
7493;SDS011;3788;49.902;8.590;2024-03-08T10:22:03;16.00;;;12.20;;
7493;SDS011;3788;49.902;8.590;2024-03-08T10:24:32;16.27;;;12.07;;
7493;SDS011;3788;49.902;8.590;2024-03-08T10:27:00;15.60;;;11.33;;
7493;SDS011;3788;49.902;8.590;2024-03-08T10:29:29;16.30;;;12.00;;
7493;SDS011;3788;49.902;8.590;2024-03-08T10:31:56;16.83;;;12.13;;
7493;SDS011;3788;49.902;8.590;2024-03-08T10:34:23;17.43;;;13.17;;
7493;SDS011;3788;49.902;8.590;2024-03-08T10:36:50;15.27;;;11.90;;
7493;SDS011;3788;49.902;8.590;2024-03-08T10:39:21;16.50;;;11.47;;
7493;SDS011;3788;49.902;8.590;2024-03-08T10:41:51;18.07;;;11.87;;
7493;SDS011;3788;49.902;8.590;2024-03-08T10:44:25;18.47;;;12.83;;
7493;SDS011;3788;49.902;8.590;2024-03-08T10:47:11;16.30;;;11.53;;
7493;SDS011;3788;49.902;8.590;2024-03-08T10:49:47;15.27;;;11.80;;
7493;SDS011;3788;49.902;8.590;2024-03-08T10:52:18;16.10;;;12.33;;
7493;SDS011;3788;49.902;8.590;2024-03-08T10:54:47;17.13;;;12.47;;
7493;SDS011;3788;49.902;8.590;2024-03-08T10:57:14;15.03;;;12.37;;
7493;SDS011;3788;49.902;8.590;2024-03-08T10:59:43;17.20;;;12.57;;
7493;SDS011;3788;49.902;8.590;2024-03-08T11:02:11;15.03;;;12.20;;
7493;SDS011;3788;49.902;8.590;2024-03-08T11:04:38;16.17;;;12.10;;
7493;SDS011;3788;49.902;8.590;2024-03-08T11:07:05;14.53;;;11.43;;
7493;SDS011;3788;49.902;8.590;2024-03-08T11:09:32;15.40;;;11.57;;
7493;SDS011;3788;49.902;8.590;2024-03-08T11:12:21;19.17;;;13.47;;
7493;SDS011;3788;49.902;8.590;2024-03-08T11:14:54;17.63;;;12.60;;
7493;SDS011;3788;49.902;8.590;2024-03-08T11:17:25;16.83;;;12.37;;
7493;SDS011;3788;49.902;8.590;2024-03-08T11:20:11;16.67;;;11.63;;
7493;SDS011;3788;49.902;8.590;2024-03-08T11:22:41;15.97;;;12.63;;
7493;SDS011;3788;49.902;8.590;2024-03-08T11:28:13;16.73;;;12.27;;
7493;SDS011;3788;49.902;8.590;2024-03-08T11:30:42;16.20;;;12.23;;
7493;SDS011;3788;49.902;8.590;2024-03-08T11:33:14;16.20;;;11.70;;
7493;SDS011;3788;49.902;8.590;2024-03-08T11:35:42;15.97;;;11.20;;
7493;SDS011;3788;49.902;8.590;2024-03-08T11:38:11;15.93;;;12.00;;
7493;SDS011;3788;49.902;8.590;2024-03-08T11:40:38;19.37;;;12.73;;
7493;SDS011;3788;49.902;8.590;2024-03-08T11:43:07;15.30;;;12.27;;
7493;SDS011;3788;49.902;8.590;2024-03-08T11:45:35;18.00;;;12.20;;
7493;SDS011;3788;49.902;8.590;2024-03-08T11:48:02;14.60;;;11.93;;
7493;SDS011;3788;49.902;8.590;2024-03-08T11:50:29;18.60;;;13.40;;
7493;SDS011;3788;49.902;8.590;2024-03-08T11:53:01;17.03;;;11.50;;
7493;SDS011;3788;49.902;8.590;2024-03-08T11:55:28;17.57;;;12.53;;
7493;SDS011;3788;49.902;8.590;2024-03-08T11:57:59;16.87;;;13.10;;
7493;SDS011;3788;49.902;8.590;2024-03-08T12:03:11;14.77;;;11.47;;
7493;SDS011;3788;49.902;8.590;2024-03-08T12:05:38;16.67;;;12.03;;
7493;SDS011;3788;49.902;8.590;2024-03-08T12:08:05;16.27;;;11.10;;
7493;SDS011;3788;49.902;8.590;2024-03-08T12:10:33;16.90;;;11.80;;
7493;SDS011;3788;49.902;8.590;2024-03-08T12:13:01;13.90;;;10.43;;
7493;SDS011;3788;49.902;8.590;2024-03-08T12:15:28;15.63;;;12.07;;
7493;SDS011;3788;49.902;8.590;2024-03-08T12:17:59;17.27;;;12.20;;
7493;SDS011;3788;49.902;8.590;2024-03-08T12:20:27;15.67;;;11.83;;
7493;SDS011;3788;49.902;8.590;2024-03-08T12:22:55;16.03;;;11.20;;
7493;SDS011;3788;49.902;8.590;2024-03-08T12:25:25;15.20;;;11.83;;
7493;SDS011;3788;49.902;8.590;2024-03-08T12:27:53;15.93;;;12.50;;
7493;SDS011;3788;49.902;8.590;2024-03-08T12:30:22;15.70;;;12.00;;
7493;SDS011;3788;49.902;8.590;2024-03-08T12:32:52;16.43;;;12.10;;
7493;SDS011;3788;49.902;8.590;2024-03-08T12:35:23;16.30;;;12.07;;
7493;SDS011;3788;49.902;8.590;2024-03-08T12:37:52;15.77;;;12.10;;
7493;SDS011;3788;49.902;8.590;2024-03-08T12:40:19;16.13;;;11.80;;
7493;SDS011;3788;49.902;8.590;2024-03-08T12:42:53;14.50;;;11.60;;
7493;SDS011;3788;49.902;8.590;2024-03-08T12:45:20;15.60;;;12.07;;
7493;SDS011;3788;49.902;8.590;2024-03-08T12:47:48;16.53;;;12.30;;
7493;SDS011;3788;49.902;8.590;2024-03-08T12:50:16;15.60;;;11.77;;
7493;SDS011;3788;49.902;8.590;2024-03-08T12:52:44;12.93;;;10.60;;
7493;SDS011;3788;49.902;8.590;2024-03-08T12:55:11;15.87;;;11.80;;
7493;SDS011;3788;49.902;8.590;2024-03-08T12:57:37;14.50;;;11.90;;
7493;SDS011;3788;49.902;8.590;2024-03-08T13:00:05;13.93;;;11.17;;
7493;SDS011;3788;49.902;8.590;2024-03-08T13:02:38;15.53;;;11.90;;
7493;SDS011;3788;49.902;8.590;2024-03-08T13:05:05;14.37;;;10.73;;
7493;SDS011;3788;49.902;8.590;2024-03-08T13:07:34;14.37;;;11.70;;
7493;SDS011;3788;49.902;8.590;2024-03-08T13:10:04;14.77;;;11.47;;
7493;SDS011;3788;49.902;8.590;2024-03-08T13:12:33;15.53;;;11.27;;
7493;SDS011;3788;49.902;8.590;2024-03-08T13:15:03;17.40;;;11.87;;
7493;SDS011;3788;49.902;8.590;2024-03-08T13:17:30;16.47;;;13.30;;
7493;SDS011;3788;49.902;8.590;2024-03-08T13:19:57;16.27;;;13.23;;
7493;SDS011;3788;49.902;8.590;2024-03-08T13:22:24;15.40;;;11.73;;
7493;SDS011;3788;49.902;8.590;2024-03-08T13:24:50;13.03;;;11.03;;
7493;SDS011;3788;49.902;8.590;2024-03-08T13:27:19;14.57;;;11.33;;
7493;SDS011;3788;49.902;8.590;2024-03-08T13:29:47;13.87;;;11.03;;
7493;SDS011;3788;49.902;8.590;2024-03-08T13:32:14;13.53;;;11.13;;
7493;SDS011;3788;49.902;8.590;2024-03-08T13:34:41;15.43;;;11.57;;
7493;SDS011;3788;49.902;8.590;2024-03-08T13:37:08;15.83;;;12.17;;
7493;SDS011;3788;49.902;8.590;2024-03-08T13:39:36;17.90;;;12.97;;
7493;SDS011;3788;49.902;8.590;2024-03-08T13:42:08;14.73;;;11.83;;
7493;SDS011;3788;49.902;8.590;2024-03-08T13:44:39;14.47;;;10.73;;
7493;SDS011;3788;49.902;8.590;2024-03-08T13:47:09;14.80;;;11.87;;
7493;SDS011;3788;49.902;8.590;2024-03-08T13:49:37;15.67;;;12.00;;
7493;SDS011;3788;49.902;8.590;2024-03-08T13:52:04;16.60;;;12.47;;
7493;SDS011;3788;49.902;8.590;2024-03-08T13:54:33;14.80;;;11.57;;
7493;SDS011;3788;49.902;8.590;2024-03-08T13:57:00;15.77;;;12.17;;
7493;SDS011;3788;49.902;8.590;2024-03-08T13:59:28;13.83;;;11.13;;
7493;SDS011;3788;49.902;8.590;2024-03-08T14:01:57;12.90;;;10.40;;
7493;SDS011;3788;49.902;8.590;2024-03-08T14:04:24;14.90;;;10.63;;
7493;SDS011;3788;49.902;8.590;2024-03-08T14:06:52;14.20;;;10.90;;
7493;SDS011;3788;49.902;8.590;2024-03-08T14:09:22;14.33;;;11.87;;
7493;SDS011;3788;49.902;8.590;2024-03-08T14:11:49;14.33;;;10.63;;
7493;SDS011;3788;49.902;8.590;2024-03-08T14:14:19;13.70;;;10.90;;
7493;SDS011;3788;49.902;8.590;2024-03-08T14:16:46;14.10;;;11.30;;
7493;SDS011;3788;49.902;8.590;2024-03-08T14:19:14;14.63;;;10.93;;
7493;SDS011;3788;49.902;8.590;2024-03-08T14:21:41;15.13;;;11.50;;
7493;SDS011;3788;49.902;8.590;2024-03-08T14:24:08;15.40;;;11.50;;
7493;SDS011;3788;49.902;8.590;2024-03-08T14:26:35;15.23;;;10.97;;
7493;SDS011;3788;49.902;8.590;2024-03-08T14:29:03;15.83;;;11.70;;
7493;SDS011;3788;49.902;8.590;2024-03-08T14:31:30;13.83;;;10.80;;
7493;SDS011;3788;49.902;8.590;2024-03-08T14:33:57;15.03;;;11.27;;
7493;SDS011;3788;49.902;8.590;2024-03-08T14:36:25;13.87;;;10.70;;
7493;SDS011;3788;49.902;8.590;2024-03-08T14:38:52;14.47;;;10.87;;
7493;SDS011;3788;49.902;8.590;2024-03-08T14:41:18;14.60;;;11.60;;
7493;SDS011;3788;49.902;8.590;2024-03-08T14:43:45;14.33;;;10.50;;
7493;SDS011;3788;49.902;8.590;2024-03-08T14:46:12;12.97;;;10.13;;
7493;SDS011;3788;49.902;8.590;2024-03-08T14:48:42;11.07;;;9.67;;
7493;SDS011;3788;49.902;8.590;2024-03-08T14:51:08;12.97;;;10.03;;
7493;SDS011;3788;49.902;8.590;2024-03-08T14:53:40;13.47;;;10.10;;
7493;SDS011;3788;49.902;8.590;2024-03-08T14:56:07;13.70;;;10.63;;
7493;SDS011;3788;49.902;8.590;2024-03-08T14:58:34;16.33;;;11.60;;